Gunnar Thorson — OUDU — position and weather

sailwx.info

Track history (hours):
 
Tides and Currents Weather Stations Pressure Air Temp Water Temp Dewpoint Dewpoint Depression Visibility Wind Speed Wind Dir Waves Ship Positions

Oceanographic research ship Gunnar Thorson (Denmark)

Detailed information on ship capabilities available from University of Delaware's Ocean Information Center.

Last reported at 2015-May-29 05:31 UTC. Time now 2015-May-29 22:31 UTC.
Position N 57°23' E 010°37'.

Length 48 m; draft 4.2 m.

Type: Military. MMSI: 219263000.

Date/timePositionNaut miles runAvg speedWind from/ knotsBaromVisibWave heightAir tempDewpointWater temp
2015-May-29 05:31N 57°23' E 010°37'0 0.0
2015-May-28 17:22N 57°23' E 010°37'810.0
2015-May-28 16:33N 57°31' E 010°39'1010.3
2015-May-28 15:33N 57°41' E 010°40'6 6.0
2015-May-28 14:33N 57°47' E 010°35'162 9.0
2015-May-27 20:33N 55°34' E 007°48'9 9.6
2015-May-27 19:33N 55°30' E 008°03'9 9.2
2015-May-27 18:33N 55°21' E 008°02'9 9.0
2015-May-27 17:33N 55°12' E 008°01'8 8.5
2015-May-27 16:33N 55°03' E 007°59'1712.2
2015-May-27 15:10N 54°46' E 007°56'2 3.1
2015-May-27 14:33N 54°44' E 007°56'10 9.7
2015-May-27 13:33N 54°35' E 007°53'1010.2
2015-May-27 12:33N 54°25' E 007°51'1010.4
2015-May-27 11:33N 54°14' E 007°49'5 4.5
2015-May-27 10:30N 54°11' E 007°54'0 0.0
2015-May-27 09:33N 54°11' E 007°54'0 0.0
2015-May-27 08:33N 54°11' E 007°54'0 0.0
2015-May-27 07:18N 54°11' E 007°54'0 0.0
2015-May-27 06:33N 54°11' E 007°54'0 0.0
2015-May-27 05:30N 54°11' E 007°54'0 0.0
2015-May-27 04:33N 54°11' E 007°54'0 0.0
2015-May-27 03:33N 54°11' E 007°54'0 0.0
2015-May-27 02:27N 54°11' E 007°54'0 0.0
2015-May-27 01:27N 54°11' E 007°54'0 0.0
2015-May-27 00:24N 54°11' E 007°54'0 0.0
2015-May-26 23:33N 54°11' E 007°54'0 0.0
2015-May-26 22:33N 54°11' E 007°54'0 0.0
2015-May-26 21:30N 54°11' E 007°54'0 0.0
2015-May-26 20:27N 54°11' E 007°54'0 0.0
2015-May-26 19:33N 54°11' E 007°54'0 0.0
2015-May-26 18:27N 54°11' E 007°54'0 0.0
2015-May-26 17:33N 54°11' E 007°54'0 0.0
2015-May-26 16:33N 54°11' E 007°54'0 0.0
2015-May-26 15:33N 54°11' E 007°54'0 0.0
2015-May-26 14:33N 54°11' E 007°54'0 0.0
2015-May-26 13:29N 54°11' E 007°54'0 0.0
2015-May-26 12:32N 54°11' E 007°54'0 0.0
2015-May-26 11:32N 54°11' E 007°54'0 0.0
2015-May-26 10:29N 54°11' E 007°54'0 0.0
2015-May-26 09:29N 54°11' E 007°54'0 0.0
2015-May-26 08:32N 54°11' E 007°54'0 0.0
2015-May-26 07:14N 54°11' E 007°54'0 0.0
2015-May-26 06:26N 54°11' E 007°54'0 0.0
2015-May-26 05:32N 54°11' E 007°54'0 0.0
2015-May-26 04:29N 54°11' E 007°54'0 0.0
2015-May-26 03:23N 54°11' E 007°54'0 0.0
2015-May-26 02:29N 54°11' E 007°54'0 0.0
2015-May-26 01:29N 54°11' E 007°54'0 0.0
2015-May-26 00:32N 54°11' E 007°54'0 0.0
2015-May-25 23:29N 54°11' E 007°54'0 0.0
2015-May-25 22:32N 54°11' E 007°54'0 0.0
2015-May-25 21:32N 54°11' E 007°54'0 0.0
2015-May-25 20:29N 54°11' E 007°54'0 0.0
2015-May-25 19:26N 54°11' E 007°54'0 0.0
2015-May-25 18:29N 54°11' E 007°54'0 0.0
2015-May-25 17:32N 54°11' E 007°54'0 0.0
2015-May-25 16:32N 54°11' E 007°54'0 0.0
2015-May-25 15:29N 54°11' E 007°54'0 0.0
2015-May-25 14:17N 54°11' E 007°54'0 0.0
2015-May-25 13:33N 54°11' E 007°54'6 6.1
2015-May-25 12:33N 54°16' E 007°50'1111.5
2015-May-25 11:33N 54°28' E 007°52'1212.0
2015-May-25 10:33N 54°40' E 007°53'2611.6
2015-May-25 08:19N 55°05' E 007°57'911.2
2015-May-25 07:33N 55°14' E 007°59'1111.1
2015-May-25 06:33N 55°25' E 008°02'10 8.7
2015-May-25 05:28N 55°33' E 007°52'160 9.4
2015-May-24 12:22N 57°46' E 010°32'7 8.7
2015-May-24 11:33N 57°44' E 010°45'1211.8
2015-May-24 10:33N 57°32' E 010°44'9 0.8
2015-May-23 23:20N 57°26' E 010°32'0 0.0
2015-May-23 22:32N 57°26' E 010°32'0 0.0
2015-May-23 21:08N 57°26' E 010°32'0 0.0
2015-May-23 20:08N 57°26' E 010°32'0 0.0
2015-May-23 17:26N 57°26' E 010°32'0 0.0
2015-May-23 16:23N 57°26' E 010°32'0 0.0
2015-May-23 15:17N 57°26' E 010°32'  
2015-May-21 11:06N 57°26' E 010°32'0 0.0
2015-May-21 09:27N 57°26' E 010°32'0 0.0
2015-May-21 08:33N 57°26' E 010°32'0 0.0
2015-May-19 18:05N 57°26' E 010°32'  
Track history (hours):
 
Tides and Currents Weather Stations Pressure Air Temp Water Temp Dewpoint Dewpoint Depression Visibility Wind Speed Wind Dir Waves Ship Positions

Oceanographic research ship Gunnar Thorson (Denmark)

Detailed information on ship capabilities available from University of Delaware's Ocean Information Center.

Last reported at 2015-May-29 05:31 UTC. Time now 2015-May-29 22:31 UTC.
Position N 57°23' E 010°37'.

Length 48 m; draft 4.2 m.

Type: Military. MMSI: 219263000.

Date/timePositionNaut miles runAvg speedWind from/ knotsBaromVisibWave heightAir tempDewpointWater temp
2015-May-29 05:31N 57°23' E 010°37'0 0.0
2015-May-28 17:22N 57°23' E 010°37'810.0
2015-May-28 16:33N 57°31' E 010°39'1010.3
2015-May-28 15:33N 57°41' E 010°40'6 6.0
2015-May-28 14:33N 57°47' E 010°35'162 9.0
2015-May-27 20:33N 55°34' E 007°48'9 9.6
2015-May-27 19:33N 55°30' E 008°03'9 9.2
2015-May-27 18:33N 55°21' E 008°02'9 9.0
2015-May-27 17:33N 55°12' E 008°01'8 8.5
2015-May-27 16:33N 55°03' E 007°59'1712.2
2015-May-27 15:10N 54°46' E 007°56'2 3.1
2015-May-27 14:33N 54°44' E 007°56'10 9.7
2015-May-27 13:33N 54°35' E 007°53'1010.2
2015-May-27 12:33N 54°25' E 007°51'1010.4
2015-May-27 11:33N 54°14' E 007°49'5 4.5
2015-May-27 10:30N 54°11' E 007°54'0 0.0
2015-May-27 09:33N 54°11' E 007°54'0 0.0
2015-May-27 08:33N 54°11' E 007°54'0 0.0
2015-May-27 07:18N 54°11' E 007°54'0 0.0
2015-May-27 06:33N 54°11' E 007°54'0 0.0
2015-May-27 05:30N 54°11' E 007°54'0 0.0
2015-May-27 04:33N 54°11' E 007°54'0 0.0
2015-May-27 03:33N 54°11' E 007°54'0 0.0
2015-May-27 02:27N 54°11' E 007°54'0 0.0
2015-May-27 01:27N 54°11' E 007°54'0 0.0
2015-May-27 00:24N 54°11' E 007°54'0 0.0
2015-May-26 23:33N 54°11' E 007°54'0 0.0
2015-May-26 22:33N 54°11' E 007°54'0 0.0
2015-May-26 21:30N 54°11' E 007°54'0 0.0
2015-May-26 20:27N 54°11' E 007°54'0 0.0
2015-May-26 19:33N 54°11' E 007°54'0 0.0
2015-May-26 18:27N 54°11' E 007°54'0 0.0
2015-May-26 17:33N 54°11' E 007°54'0 0.0
2015-May-26 16:33N 54°11' E 007°54'0 0.0
2015-May-26 15:33N 54°11' E 007°54'0 0.0
2015-May-26 14:33N 54°11' E 007°54'0 0.0
2015-May-26 13:29N 54°11' E 007°54'0 0.0
2015-May-26 12:32N 54°11' E 007°54'0 0.0
2015-May-26 11:32N 54°11' E 007°54'0 0.0
2015-May-26 10:29N 54°11' E 007°54'0 0.0
2015-May-26 09:29N 54°11' E 007°54'0 0.0
2015-May-26 08:32N 54°11' E 007°54'0 0.0
2015-May-26 07:14N 54°11' E 007°54'0 0.0
2015-May-26 06:26N 54°11' E 007°54'0 0.0
2015-May-26 05:32N 54°11' E 007°54'0 0.0
2015-May-26 04:29N 54°11' E 007°54'0 0.0
2015-May-26 03:23N 54°11' E 007°54'0 0.0
2015-May-26 02:29N 54°11' E 007°54'0 0.0
2015-May-26 01:29N 54°11' E 007°54'0 0.0
2015-May-26 00:32N 54°11' E 007°54'0 0.0
2015-May-25 23:29N 54°11' E 007°54'0 0.0
2015-May-25 22:32N 54°11' E 007°54'0 0.0
2015-May-25 21:32N 54°11' E 007°54'0 0.0
2015-May-25 20:29N 54°11' E 007°54'0 0.0
2015-May-25 19:26N 54°11' E 007°54'0 0.0
2015-May-25 18:29N 54°11' E 007°54'0 0.0
2015-May-25 17:32N 54°11' E 007°54'0 0.0
2015-May-25 16:32N 54°11' E 007°54'0 0.0
2015-May-25 15:29N 54°11' E 007°54'0 0.0
2015-May-25 14:17N 54°11' E 007°54'0 0.0
2015-May-25 13:33N 54°11' E 007°54'6 6.1
2015-May-25 12:33N 54°16' E 007°50'1111.5
2015-May-25 11:33N 54°28' E 007°52'1212.0
2015-May-25 10:33N 54°40' E 007°53'2611.6
2015-May-25 08:19N 55°05' E 007°57'911.2
2015-May-25 07:33N 55°14' E 007°59'1111.1
2015-May-25 06:33N 55°25' E 008°02'10 8.7
2015-May-25 05:28N 55°33' E 007°52'160 9.4
2015-May-24 12:22N 57°46' E 010°32'7 8.7
2015-May-24 11:33N 57°44' E 010°45'1211.8
2015-May-24 10:33N 57°32' E 010°44'9 0.8
2015-May-23 23:20N 57°26' E 010°32'0 0.0
2015-May-23 22:32N 57°26' E 010°32'0 0.0
2015-May-23 21:08N 57°26' E 010°32'0 0.0
2015-May-23 20:08N 57°26' E 010°32'0 0.0
2015-May-23 17:26N 57°26' E 010°32'0 0.0
2015-May-23 16:23N 57°26' E 010°32'0 0.0
2015-May-23 15:17N 57°26' E 010°32'  
2015-May-21 11:06N 57°26' E 010°32'0 0.0
2015-May-21 09:27N 57°26' E 010°32'0 0.0
2015-May-21 08:33N 57°26' E 010°32'0 0.0
2015-May-19 18:05N 57°26' E 010°32'  

Dump ship's entire track history